Arena, Wisconsin
Current Conditions -  °F | °C
As of 7:38 AM on Friday 24 Oct 2014 (Local Time) from KLNR Reporting Station
Haze Haze  
Wind Chill: 52°   Ceiling: 300
Heat Index: 52°   Visibility: 3mi
Dew Point: 48°   Wind: 3mph
Humidity: 86%   Direction: 150°SSE
Pressure: 30.04"   Gusts: NA
Location:  43.17°N, 89.91°W
Report Text: KLNR 241238Z AUTO 15003KT 3SM BR OVC003 11/09 A3004 RMK AO2 T01110089
Loading
Personal Weather Stations






























Interactive Weather Map
Tropical Storm Tracking
New forecast layout! Learn more

10-Day Weather Forecast

Advertisements
Track Severe Weather on mobile